sensor_id;sensor_type;location;lat;lon;timestamp;pressure;altitude;pressure_sealevel;temperature;humidity
7990;BME280;4040;42.848;23.034;2023-04-01T00:01:42;94050.91;;;11.31;86.73
7990;BME280;4040;42.848;23.034;2023-04-01T00:07:31;94027.91;;;11.10;93.11
7990;BME280;4040;42.848;23.034;2023-04-01T00:13:21;94056.91;;;11.22;95.73
7990;BME280;4040;42.848;23.034;2023-04-01T00:19:10;94043.09;;;10.88;92.52
7990;BME280;4040;42.848;23.034;2023-04-01T00:24:59;94034.66;;;11.18;94.29
7990;BME280;4040;42.848;23.034;2023-04-01T00:30:49;94029.09;;;11.25;100.00
7990;BME280;4040;42.848;23.034;2023-04-01T00:36:38;94019.34;;;11.15;100.00
7990;BME280;4040;42.848;23.034;2023-04-01T00:42:27;94007.66;;;11.06;100.00
7990;BME280;4040;42.848;23.034;2023-04-01T00:48:19;94005.38;;;11.04;100.00
7990;BME280;4040;42.848;23.034;2023-04-01T00:54:11;94005.38;;;11.04;100.00
7990;BME280;4040;42.848;23.034;2023-04-01T01:00:02;93986.09;;;10.90;100.00
7990;BME280;4040;42.848;23.034;2023-04-01T01:10:17;93960.78;;;10.55;100.00
7990;BME280;4040;42.848;23.034;2023-04-01T01:16:10;93969.69;;;10.36;100.00
7990;BME280;4040;42.848;23.034;2023-04-01T01:22:26;93960.75;;;10.23;100.00
7990;BME280;4040;42.848;23.034;2023-04-01T01:28:32;93964.13;;;10.11;100.00
7990;BME280;4040;42.848;23.034;2023-04-01T01:34:49;93965.91;;;9.98;100.00
7990;BME280;4040;42.848;23.034;2023-04-01T01:40:45;93959.50;;;10.12;100.00
7990;BME280;4040;42.848;23.034;2023-04-01T01:46:39;93950.59;;;9.95;100.00
7990;BME280;4040;42.848;23.034;2023-04-01T01:52:29;93942.19;;;9.93;100.00
7990;BME280;4040;42.848;23.034;2023-04-01T01:58:23;93942.19;;;9.93;100.00
7990;BME280;4040;42.848;23.034;2023-04-01T02:04:14;93936.44;;;9.76;100.00
7990;BME280;4040;42.848;23.034;2023-04-01T02:10:04;93938.16;;;9.66;100.00
7990;BME280;4040;42.848;23.034;2023-04-01T02:15:55;93940.44;;;9.68;100.00
7990;BME280;4040;42.848;23.034;2023-04-01T02:21:45;93928.56;;;9.85;100.00
7990;BME280;4040;42.848;23.034;2023-04-01T02:27:34;93933.63;;;9.98;100.00
7990;BME280;4040;42.848;23.034;2023-04-01T02:33:25;93936.88;;;10.09;100.00
7990;BME280;4040;42.848;23.034;2023-04-01T02:39:15;93940.81;;;10.05;100.00
7990;BME280;4040;42.848;23.034;2023-04-01T02:45:06;93949.91;;;10.11;100.00
7990;BME280;4040;42.848;23.034;2023-04-01T02:50:56;93947.97;;;10.11;100.00
7990;BME280;4040;42.848;23.034;2023-04-01T02:56:45;93962.03;;;9.99;100.00
7990;BME280;4040;42.848;23.034;2023-04-01T03:02:34;93945.63;;;10.45;100.00
7990;BME280;4040;42.848;23.034;2023-04-01T03:12:46;93951.97;;;10.99;100.00
7990;BME280;4040;42.848;23.034;2023-04-01T03:18:35;93941.94;;;11.16;100.00
7990;BME280;4040;42.848;23.034;2023-04-01T03:24:24;93918.63;;;11.09;100.00
7990;BME280;4040;42.848;23.034;2023-04-01T03:30:14;93900.94;;;11.08;100.00
7990;BME280;4040;42.848;23.034;2023-04-01T03:36:04;93893.31;;;11.07;100.00
7990;BME280;4040;42.848;23.034;2023-04-01T03:41:53;93878.84;;;11.01;100.00
7990;BME280;4040;42.848;23.034;2023-04-01T03:47:43;93874.88;;;11.05;100.00
7990;BME280;4040;42.848;23.034;2023-04-01T03:53:32;93863.22;;;10.80;100.00
7990;BME280;4040;42.848;23.034;2023-04-01T03:59:21;93818.34;;;10.61;100.00
7990;BME280;4040;42.848;23.034;2023-04-01T04:05:11;93811.53;;;10.56;100.00
7990;BME280;4040;42.848;23.034;2023-04-01T04:15:40;93842.31;;;10.55;100.00
7990;BME280;4040;42.848;23.034;2023-04-01T04:21:30;93827.97;;;10.46;100.00
7990;BME280;4040;42.848;23.034;2023-04-01T04:27:19;93793.84;;;10.27;100.00
7990;BME280;4040;42.848;23.034;2023-04-01T04:33:08;93800.28;;;10.45;100.00
7990;BME280;4040;42.848;23.034;2023-04-01T04:38:58;93799.31;;;10.23;100.00
7990;BME280;4040;42.848;23.034;2023-04-01T04:44:49;93792.44;;;10.22;100.00
7990;BME280;4040;42.848;23.034;2023-04-01T04:50:37;93747.47;;;10.07;100.00
7990;BME280;4040;42.848;23.034;2023-04-01T04:56:30;93755.19;;;10.21;100.00
7990;BME280;4040;42.848;23.034;2023-04-01T05:02:19;93747.56;;;10.03;100.00
7990;BME280;4040;42.848;23.034;2023-04-01T05:08:07;93730.47;;;10.10;100.00
7990;BME280;4040;42.848;23.034;2023-04-01T05:18:19;93734.94;;;12.66;100.00
7990;BME280;4040;42.848;23.034;2023-04-01T05:24:09;93720.31;;;14.88;100.00
7990;BME280;4040;42.848;23.034;2023-04-01T05:29:57;93727.09;;;13.32;100.00
7990;BME280;4040;42.848;23.034;2023-04-01T05:35:47;93717.75;;;13.55;100.00
7990;BME280;4040;42.848;23.034;2023-04-01T05:41:36;93701.06;;;16.71;72.61
7990;BME280;4040;42.848;23.034;2023-04-01T05:47:25;93713.06;;;16.18;69.61
7990;BME280;4040;42.848;23.034;2023-04-01T05:53:15;93707.50;;;15.56;71.37
7990;BME280;4040;42.848;23.034;2023-04-01T05:59:03;93676.72;;;15.18;71.63
7990;BME280;4040;42.848;23.034;2023-04-01T06:04:58;93705.13;;;16.52;68.51
7990;BME280;4040;42.848;23.034;2023-04-01T06:11:03;93685.84;;;16.65;64.17
7990;BME280;4040;42.848;23.034;2023-04-01T06:21:39;93699.38;;;16.74;54.41
7990;BME280;4040;42.848;23.034;2023-04-01T06:27:40;93691.84;;;16.07;61.19
7990;BME280;4040;42.848;23.034;2023-04-01T06:33:42;93672.56;;;15.49;67.58
7990;BME280;4040;42.848;23.034;2023-04-01T06:40:02;93690.97;;;15.45;68.50
7990;BME280;4040;42.848;23.034;2023-04-01T06:46:02;93688.25;;;14.86;74.88
7990;BME280;4040;42.848;23.034;2023-04-01T06:51:58;93689.00;;;14.87;77.35
7990;BME280;4040;42.848;23.034;2023-04-01T06:57:50;93683.09;;;15.47;81.94
7990;BME280;4040;42.848;23.034;2023-04-01T07:03:44;93683.63;;;16.16;71.09
7990;BME280;4040;42.848;23.034;2023-04-01T07:09:38;93682.00;;;15.86;74.35
7990;BME280;4040;42.848;23.034;2023-04-01T07:15:31;93699.22;;;15.83;73.10
7990;BME280;4040;42.848;23.034;2023-04-01T07:21:30;93689.19;;;15.33;77.20
7990;BME280;4040;42.848;23.034;2023-04-01T07:27:23;93682.03;;;15.04;83.53
7990;BME280;4040;42.848;23.034;2023-04-01T07:33:16;93689.63;;;14.73;89.63
7990;BME280;4040;42.848;23.034;2023-04-01T07:39:22;93687.53;;;14.77;92.13
7990;BME280;4040;42.848;23.034;2023-04-01T07:45:19;93664.50;;;15.23;81.25
7990;BME280;4040;42.848;23.034;2023-04-01T07:51:15;93671.63;;;15.52;89.77
7990;BME280;4040;42.848;23.034;2023-04-01T07:57:11;93666.53;;;15.45;90.95
7990;BME280;4040;42.848;23.034;2023-04-01T08:03:15;93633.28;;;15.36;91.62
7990;BME280;4040;42.848;23.034;2023-04-01T08:09:15;93625.22;;;15.50;87.42
7990;BME280;4040;42.848;23.034;2023-04-01T08:15:16;93618.13;;;15.76;79.57
7990;BME280;4040;42.848;23.034;2023-04-01T08:21:14;93599.84;;;16.00;76.77
7990;BME280;4040;42.848;23.034;2023-04-01T08:27:11;93598.00;;;16.73;70.60
7990;BME280;4040;42.848;23.034;2023-04-01T08:33:10;93597.00;;;16.85;69.58
7990;BME280;4040;42.848;23.034;2023-04-01T08:39:03;93591.94;;;16.64;74.78
7990;BME280;4040;42.848;23.034;2023-04-01T08:45:09;93593.91;;;16.49;71.66
7990;BME280;4040;42.848;23.034;2023-04-01T08:51:29;93587.78;;;16.39;70.49
7990;BME280;4040;42.848;23.034;2023-04-01T08:57:37;93578.56;;;16.22;71.37
7990;BME280;4040;42.848;23.034;2023-04-01T09:03:37;93561.06;;;15.85;69.84
7990;BME280;4040;42.848;23.034;2023-04-01T09:09:49;93554.91;;;15.99;69.63
7990;BME280;4040;42.848;23.034;2023-04-01T09:16:11;93540.09;;;15.86;67.65
7990;BME280;4040;42.848;23.034;2023-04-01T09:22:19;93535.75;;;15.79;70.16
7990;BME280;4040;42.848;23.034;2023-04-01T09:28:17;93519.53;;;16.08;71.34
7990;BME280;4040;42.848;23.034;2023-04-01T09:34:26;93470.25;;;16.73;61.89
7990;BME280;4040;42.848;23.034;2023-04-01T09:40:26;93469.63;;;17.53;62.19
7990;BME280;4040;42.848;23.034;2023-04-01T09:46:26;93456.94;;;17.30;57.74
7990;BME280;4040;42.848;23.034;2023-04-01T09:52:26;93459.03;;;17.20;56.59
7990;BME280;4040;42.848;23.034;2023-04-01T10:11:26;93377.53;;;17.71;55.68
7990;BME280;4040;42.848;23.034;2023-04-01T10:21:37;93396.53;;;17.66;54.90
7990;BME280;4040;42.848;23.034;2023-04-01T10:34:26;93380.09;;;17.80;52.78
7990;BME280;4040;42.848;23.034;2023-04-01T10:40:38;93373.50;;;17.92;52.05
7990;BME280;4040;42.848;23.034;2023-04-01T10:47:03;93358.09;;;17.84;50.74
7990;BME280;4040;42.848;23.034;2023-04-01T10:53:34;93369.28;;;17.40;49.50
7990;BME280;4040;42.848;23.034;2023-04-01T11:13:04;93471.59;;;15.29;72.25
7990;BME280;4040;42.848;23.034;2023-04-01T11:23:29;93552.31;;;12.68;100.00
7990;BME280;4040;42.848;23.034;2023-04-01T11:29:41;93619.81;;;11.61;100.00
7990;BME280;4040;42.848;23.034;2023-04-01T11:36:05;93645.75;;;10.96;100.00
7990;BME280;4040;42.848;23.034;2023-04-01T11:42:07;93622.69;;;10.70;100.00
7990;BME280;4040;42.848;23.034;2023-04-01T11:48:17;93619.44;;;10.75;100.00
7990;BME280;4040;42.848;23.034;2023-04-01T11:54:21;93595.41;;;10.68;100.00
7990;BME280;4040;42.848;23.034;2023-04-01T12:00:41;93584.34;;;10.91;100.00
7990;BME280;4040;42.848;23.034;2023-04-01T12:06:43;93622.22;;;11.34;100.00
7990;BME280;4040;42.848;23.034;2023-04-01T12:12:38;93624.66;;;12.00;100.00
7990;BME280;4040;42.848;23.034;2023-04-01T12:18:34;93607.22;;;12.14;100.00
7990;BME280;4040;42.848;23.034;2023-04-01T12:24:51;93585.88;;;11.85;100.00
7990;BME280;4040;42.848;23.034;2023-04-01T12:30:51;93463.38;;;11.18;100.00
7990;BME280;4040;42.848;23.034;2023-04-01T12:36:59;93571.91;;;12.51;100.00
7990;BME280;4040;42.848;23.034;2023-04-01T12:43:03;93564.34;;;12.67;100.00
7990;BME280;4040;42.848;23.034;2023-04-01T13:01:59;93552.06;;;15.32;100.00
7990;BME280;4040;42.848;23.034;2023-04-01T13:07:54;93431.78;;;14.89;100.00
7990;BME280;4040;42.848;23.034;2023-04-01T13:14:07;93526.94;;;15.23;100.00
7990;BME280;4040;42.848;23.034;2023-04-01T13:23:54;93516.94;;;14.23;100.00
7990;BME280;4040;42.848;23.034;2023-04-01T13:29:50;93485.03;;;14.27;100.00
7990;BME280;4040;42.848;23.034;2023-04-01T13:35:48;93359.91;;;13.63;100.00
7990;BME280;4040;42.848;23.034;2023-04-01T13:41:55;93399.00;;;14.13;100.00
7990;BME280;4040;42.848;23.034;2023-04-01T13:54:36;93444.97;;;14.96;100.00
7990;BME280;4040;42.848;23.034;2023-04-01T14:00:45;93447.72;;;15.42;100.00
7990;BME280;4040;42.848;23.034;2023-04-01T14:06:42;93430.63;;;15.65;100.00
7990;BME280;4040;42.848;23.034;2023-04-01T14:12:40;93339.81;;;15.23;100.00
7990;BME280;4040;42.848;23.034;2023-04-01T14:18:54;93430.06;;;15.61;93.27
7990;BME280;4040;42.848;23.034;2023-04-01T14:25:02;93395.72;;;15.87;85.58
7990;BME280;4040;42.848;23.034;2023-04-01T14:31:25;93388.03;;;16.00;79.84
7990;BME280;4040;42.848;23.034;2023-04-01T14:37:57;93403.78;;;16.25;81.26
7990;BME280;4040;42.848;23.034;2023-04-01T14:44:18;93383.00;;;15.64;81.59
7990;BME280;4040;42.848;23.034;2023-04-01T14:50:14;93411.47;;;15.98;89.63
7990;BME280;4040;42.848;23.034;2023-04-01T14:56:05;93411.81;;;15.76;75.73
7990;BME280;4040;42.848;23.034;2023-04-01T15:01:58;93411.78;;;15.47;71.69
7990;BME280;4040;42.848;23.034;2023-04-01T15:08:05;93417.97;;;15.48;71.55
7990;BME280;4040;42.848;23.034;2023-04-01T15:14:36;93412.50;;;15.33;69.53
7990;BME280;4040;42.848;23.034;2023-04-01T15:20:49;93563.56;;;13.55;100.00
7990;BME280;4040;42.848;23.034;2023-04-01T15:39:52;93691.28;;;9.49;100.00
7990;BME280;4040;42.848;23.034;2023-04-01T15:45:49;93699.75;;;9.15;100.00
7990;BME280;4040;42.848;23.034;2023-04-01T15:51:53;93718.81;;;9.05;100.00
7990;BME280;4040;42.848;23.034;2023-04-01T15:57:55;93739.19;;;9.02;100.00
7990;BME280;4040;42.848;23.034;2023-04-01T16:03:55;93726.25;;;8.97;100.00
7990;BME280;4040;42.848;23.034;2023-04-01T16:09:59;93722.28;;;8.86;100.00
7990;BME280;4040;42.848;23.034;2023-04-01T16:16:03;93709.84;;;8.76;100.00
7990;BME280;4040;42.848;23.034;2023-04-01T16:25:40;93703.53;;;8.47;100.00
7990;BME280;4040;42.848;23.034;2023-04-01T16:31:35;93703.75;;;8.36;100.00
7990;BME280;4040;42.848;23.034;2023-04-01T16:37:33;93571.75;;;7.28;100.00
7990;BME280;4040;42.848;23.034;2023-04-01T16:43:28;93605.97;;;7.40;100.00
7990;BME280;4040;42.848;23.034;2023-04-01T16:49:32;93667.09;;;7.45;100.00
7990;BME280;4040;42.848;23.034;2023-04-01T16:55:34;93624.69;;;7.21;100.00
7990;BME280;4040;42.848;23.034;2023-04-01T17:01:27;93689.69;;;7.44;100.00
7990;BME280;4040;42.848;23.034;2023-04-01T17:07:30;93689.09;;;7.33;100.00
7990;BME280;4040;42.848;23.034;2023-04-01T17:13:33;93676.34;;;7.18;100.00
7990;BME280;4040;42.848;23.034;2023-04-01T17:19:33;93659.53;;;6.94;100.00
7990;BME280;4040;42.848;23.034;2023-04-01T17:25:37;93623.97;;;6.67;100.00
7990;BME280;4040;42.848;23.034;2023-04-01T17:31:37;93741.56;;;7.31;100.00
7990;BME280;4040;42.848;23.034;2023-04-01T17:37:40;93814.28;;;7.78;100.00
7990;BME280;4040;42.848;23.034;2023-04-01T17:43:43;93856.47;;;8.24;100.00
7990;BME280;4040;42.848;23.034;2023-04-01T17:49:39;93868.34;;;8.46;100.00
7990;BME280;4040;42.848;23.034;2023-04-01T17:55:49;93874.19;;;8.64;100.00
7990;BME280;4040;42.848;23.034;2023-04-01T18:01:47;93734.88;;;7.65;100.00
7990;BME280;4040;42.848;23.034;2023-04-01T18:08:17;93893.31;;;8.66;100.00
7990;BME280;4040;42.848;23.034;2023-04-01T18:17:42;93807.31;;;7.84;100.00
7990;BME280;4040;42.848;23.034;2023-04-01T18:27:38;93918.34;;;8.59;100.00
7990;BME280;4040;42.848;23.034;2023-04-01T18:33:36;93922.38;;;8.71;100.00
7990;BME280;4040;42.848;23.034;2023-04-01T18:39:34;93935.78;;;8.71;100.00
7990;BME280;4040;42.848;23.034;2023-04-01T18:45:28;93941.03;;;8.78;100.00
7990;BME280;4040;42.848;23.034;2023-04-01T18:51:25;93941.22;;;8.67;100.00
7990;BME280;4040;42.848;23.034;2023-04-01T18:57:16;93950.72;;;8.72;100.00
7990;BME280;4040;42.848;23.034;2023-04-01T19:03:12;93952.59;;;8.75;100.00
7990;BME280;4040;42.848;23.034;2023-04-01T19:09:22;93958.06;;;8.68;100.00
7990;BME280;4040;42.848;23.034;2023-04-01T19:15:31;93963.16;;;8.62;100.00
7990;BME280;4040;42.848;23.034;2023-04-01T19:21:26;93972.06;;;8.56;100.00
7990;BME280;4040;42.848;23.034;2023-04-01T19:27:27;93962.31;;;8.65;100.00
7990;BME280;4040;42.848;23.034;2023-04-01T19:33:28;93943.84;;;8.71;100.00
7990;BME280;4040;42.848;23.034;2023-04-01T19:39:31;93946.41;;;8.55;100.00
7990;BME280;4040;42.848;23.034;2023-04-01T19:45:34;93945.47;;;8.19;100.00
7990;BME280;4040;42.848;23.034;2023-04-01T19:51:33;93934.38;;;7.87;100.00
7990;BME280;4040;42.848;23.034;2023-04-01T19:57:30;93955.78;;;7.90;100.00
7990;BME280;4040;42.848;23.034;2023-04-01T20:03:34;93959.16;;;7.68;100.00
7990;BME280;4040;42.848;23.034;2023-04-01T20:09:47;93972.03;;;7.80;100.00
7990;BME280;4040;42.848;23.034;2023-04-01T20:15:41;93958.97;;;7.82;100.00
7990;BME280;4040;42.848;23.034;2023-04-01T20:21:35;93967.56;;;7.70;100.00
7990;BME280;4040;42.848;23.034;2023-04-01T20:27:27;93964.69;;;7.54;100.00
7990;BME280;4040;42.848;23.034;2023-04-01T20:33:42;93979.19;;;7.60;100.00
7990;BME280;4040;42.848;23.034;2023-04-01T20:39:57;93923.22;;;7.02;100.00
7990;BME280;4040;42.848;23.034;2023-04-01T20:45:56;93990.84;;;7.43;100.00
7990;BME280;4040;42.848;23.034;2023-04-01T20:51:47;93998.53;;;7.41;100.00
7990;BME280;4040;42.848;23.034;2023-04-01T20:57:48;94014.44;;;7.55;100.00
7990;BME280;4040;42.848;23.034;2023-04-01T21:03:47;94014.63;;;7.71;100.00
7990;BME280;4040;42.848;23.034;2023-04-01T21:09:53;94000.59;;;7.60;100.00
7990;BME280;4040;42.848;23.034;2023-04-01T21:15:53;94003.94;;;7.38;100.00
7990;BME280;4040;42.848;23.034;2023-04-01T21:22:06;94013.91;;;7.37;100.00
7990;BME280;4040;42.848;23.034;2023-04-01T21:28:25;94015.47;;;7.31;100.00
7990;BME280;4040;42.848;23.034;2023-04-01T21:34:42;94025.47;;;7.27;100.00
7990;BME280;4040;42.848;23.034;2023-04-01T21:40:50;94033.09;;;7.29;100.00
7990;BME280;4040;42.848;23.034;2023-04-01T21:53:46;94022.06;;;6.86;100.00
7990;BME280;4040;42.848;23.034;2023-04-01T22:08:41;94005.38;;;6.17;100.00
7990;BME280;4040;42.848;23.034;2023-04-01T22:14:39;94018.00;;;6.17;100.00
7990;BME280;4040;42.848;23.034;2023-04-01T22:20:35;94022.56;;;6.20;100.00
7990;BME280;4040;42.848;23.034;2023-04-01T22:26:35;94052.53;;;5.90;100.00
7990;BME280;4040;42.848;23.034;2023-04-01T22:32:30;94041.84;;;5.90;100.00
7990;BME280;4040;42.848;23.034;2023-04-01T22:38:32;94040.31;;;5.89;100.00
7990;BME280;4040;42.848;23.034;2023-04-01T22:44:35;94021.38;;;5.49;100.00
7990;BME280;4040;42.848;23.034;2023-04-01T22:50:33;94035.88;;;5.51;100.00
7990;BME280;4040;42.848;23.034;2023-04-01T22:56:29;94038.19;;;5.35;100.00
7990;BME280;4040;42.848;23.034;2023-04-01T23:02:23;94045.03;;;5.47;100.00
7990;BME280;4040;42.848;23.034;2023-04-01T23:15:00;94055.78;;;5.29;100.00
7990;BME280;4040;42.848;23.034;2023-04-01T23:21:01;94060.75;;;5.20;100.00
7990;BME280;4040;42.848;23.034;2023-04-01T23:26:56;94060.41;;;4.97;100.00
7990;BME280;4040;42.848;23.034;2023-04-01T23:32:47;94023.09;;;4.66;100.00
7990;BME280;4040;42.848;23.034;2023-04-01T23:38:39;94051.28;;;4.78;100.00
7990;BME280;4040;42.848;23.034;2023-04-01T23:44:29;94044.44;;;4.49;100.00
7990;BME280;4040;42.848;23.034;2023-04-01T23:50:20;94020.81;;;4.23;100.00
7990;BME280;4040;42.848;23.034;2023-04-01T23:56:11;94046.72;;;4.43;100.00
